This is the latest recevied weather packets stored in our database for station/object KD2ZLA. If no packets are shown the sender has not sent any weather packets the latest 10 day(s).
| Time | Temp. | Humidity | Pressure | Rain* | Wind** | Luminosity | Snow |
|---|---|---|---|---|---|---|---|
| 1777601957 | 6.11° C | 95% | 1011.3 hPa | 0 mm | - | 0 W/m² | - |
| 1777601653 | 6.11° C | 95% | 1011 hPa | 0 mm | - | 0 W/m² | - |
| 1777601349 | 6.11° C | 95% | 1011.2 hPa | 0 mm | - | 0 W/m² | - |
| 1777601045 | 6.11° C | 94% | 1011.1 hPa | 0 mm | - | 0 W/m² | - |
| 1777600742 | 6.11° C | 94% | 1011.2 hPa | 0 mm | - | 0 W/m² | - |
| 1777586781 | 8.33° C | 69% | 1009.5 hPa | 0 mm | - | 41 W/m² | - |
| 1777586477 | 8.89° C | 71% | 1009.4 hPa | 0 mm | - | 80 W/m² | - |
| 1777586172 | 8.89° C | 70% | 1009.5 hPa | 0 mm | - | 115 W/m² | - |
| 1777585870 | 8.89° C | 70% | 1009.1 hPa | 0 mm | - | 137 W/m² | - |
| 1777585565 | 8.89° C | 68% | 1009.3 hPa | 0 mm | - | 141 W/m² | - |
| 1777584653 | 9.44° C | 67% | 1009.2 hPa | 0 mm | - | 194 W/m² | - |
| 1777584350 | 9.44° C | 71% | 1008.8 hPa | 0 mm | - | 323 W/m² | - |
| 1777584046 | 8.33° C | 74% | 1009.1 hPa | 0 mm | - | 327 W/m² | - |
| 1777583745 | 8.33° C | 74% | 1009.1 hPa | 0 mm | - | 89 W/m² | - |
| 1777583445 | 7.78° C | 74% | 1009.1 hPa | 0 mm | - | 94 W/m² | - |
| 1777583144 | 7.78° C | 74% | 1009.2 hPa | 0 mm | - | 115 W/m² | - |
| 1777582538 | 7.78° C | 74% | 1009.1 hPa | 0 mm | - | 82 W/m² | - |
| 1777582232 | 7.78° C | 74% | 1009.1 hPa | 0 mm | - | 83 W/m² | - |
| 1777581016 | 7.78° C | 76% | 1008.9 hPa | 0 mm | - | 107 W/m² | - |
| 1777580411 | 7.78° C | 75% | 1008.8 hPa | 0 mm | - | 102 W/m² | - |
| 1777580107 | 7.78° C | 76% | 1008.8 hPa | 0 mm | - | 121 W/m² | - |
| 1777579503 | 7.78° C | 77% | 1008.7 hPa | 0 mm | - | 137 W/m² | - |
| 1777579197 | 7.78° C | 77% | 1008.6 hPa | 0 mm | - | 126 W/m² | - |
| 1777577979 | 7.78° C | 77% | 1008.6 hPa | 0 mm | - | 192 W/m² | - |
| 1777577673 | 7.78° C | 77% | 1008.6 hPa | 0 mm | - | 172 W/m² | - |
* Rain latest hour (hover to see other rain measurements)
** Current wind speed in m/s (hover to see current wind gust speed)